Time;durP1;ratioP1;P1;durP2;ratioP2;P2;SDS_P1;SDS_P2;PMS_P1;PMS_P2;Temp;Humidity;BMP_temperature;BMP_pressure;BME280_temperature;BME280_humidity;BME280_pressure;Samples;Min_cycle;Max_cycle;Signal;HPM_P1;HPM_P2
2022/11/26 00:00:24;;;;;;;20.73;9.45;;;13.00;66.60;;;;;;5142178;28;20042;-68
2022/11/26 00:02:51;;;;;;;23.52;10.80;;;13.00;66.70;;;;;;5142257;28;20020;-68
2022/11/26 00:05:18;;;;;;;26.23;10.60;;;12.90;66.80;;;;;;5142185;28;20050;-69
2022/11/26 00:07:54;;;;;;;23.63;10.77;;;12.90;66.90;;;;;;5142241;28;20026;-68
2022/11/26 00:10:28;;;;;;;20.52;10.45;;;12.90;67.00;;;;;;5142280;28;20098;-68
2022/11/26 00:12:55;;;;;;;28.25;11.82;;;12.90;67.10;;;;;;5142240;28;20026;-69
2022/11/26 00:15:24;;;;;;;22.73;10.63;;;12.90;67.10;;;;;;5142511;27;20086;-69
2022/11/26 00:17:51;;;;;;;21.63;10.65;;;12.90;67.00;;;;;;5146303;27;20345;-68
2022/11/26 00:20:19;;;;;;;27.63;11.13;;;12.90;66.90;;;;;;5146277;27;20027;-68
2022/11/26 00:22:49;;;;;;;26.53;10.60;;;12.90;66.80;;;;;;5146252;27;20019;-68
2022/11/26 00:25:19;;;;;;;22.75;9.73;;;12.90;66.70;;;;;;5127705;27;20031;-69
2022/11/26 00:27:46;;;;;;;21.95;10.55;;;12.90;66.60;;;;;;5146109;27;20277;-68
2022/11/26 00:30:24;;;;;;;27.60;11.05;;;13.00;66.60;;;;;;5146016;27;20087;-69
2022/11/26 00:32:51;;;;;;;22.70;10.48;;;12.90;66.60;;;;;;5146086;27;20088;-68
2022/11/26 00:35:17;;;;;;;24.05;11.18;;;12.90;66.60;;;;;;5145945;27;20378;-68
2022/11/26 00:37:55;;;;;;;23.42;10.02;;;12.90;66.50;;;;;;5145944;27;20075;-68
2022/11/26 00:40:31;;;;;;;24.00;10.48;;;13.00;66.60;;;;;;5145883;27;20022;-68
2022/11/26 00:42:58;;;;;;;22.55;10.27;;;13.00;66.50;;;;;;5145869;27;20022;-69
2022/11/26 00:45:26;;;;;;;22.83;9.43;;;13.00;66.30;;;;;;5145770;27;20072;-68
2022/11/26 00:47:59;;;;;;;24.65;10.27;;;13.00;66.20;;;;;;5145761;27;20023;-68
2022/11/26 00:50:27;;;;;;;24.15;10.25;;;13.00;66.20;;;;;;5145723;27;20015;-68
2022/11/26 00:52:55;;;;;;;18.02;9.65;;;13.00;66.10;;;;;;5145720;27;20019;-69
2022/11/26 00:55:35;;;;;;;24.58;10.45;;;13.00;66.00;;;;;;5145436;27;20057;-68
2022/11/26 00:58:02;;;;;;;29.05;10.82;;;13.00;66.10;;;;;;5145589;27;20049;-68
2022/11/26 01:00:30;;;;;;;20.50;9.93;;;13.00;66.20;;;;;;5145514;27;20012;-69
2022/11/26 01:02:57;;;;;;;24.52;10.27;;;13.00;66.50;;;;;;5145446;27;20075;-69
2022/11/26 01:05:25;;;;;;;22.13;10.65;;;13.00;66.50;;;;;;5145344;27;20091;-69
2022/11/26 01:07:52;;;;;;;19.23;9.23;;;13.00;66.60;;;;;;5145316;27;20039;-68
2022/11/26 01:10:21;;;;;;;19.20;8.75;;;13.00;66.50;;;;;;5145249;27;20218;-68
2022/11/26 01:12:48;;;;;;;21.30;10.25;;;13.00;66.60;;;;;;5145213;27;20369;-69
2022/11/26 01:15:14;;;;;;;21.60;10.02;;;13.00;66.70;;;;;;5145100;27;20039;-69
2022/11/26 01:17:41;;;;;;;22.52;9.98;;;13.00;66.80;;;;;;5145186;27;20238;-69
2022/11/26 01:20:21;;;;;;;22.55;10.05;;;12.90;66.90;;;;;;5145151;27;20023;-68
2022/11/26 01:22:49;;;;;;;25.75;10.43;;;12.90;67.10;;;;;;5145067;27;20082;-69
2022/11/26 01:25:14;;;;;;;22.85;10.27;;;12.90;67.20;;;;;;5145006;27;20454;-68
2022/11/26 01:27:40;;;;;;;24.52;10.00;;;12.90;67.20;;;;;;5144476;27;20023;-68
2022/11/26 01:30:26;;;;;;;22.35;9.77;;;12.90;67.10;;;;;;5144868;27;20091;-69
2022/11/26 01:32:52;;;;;;;25.85;10.52;;;12.90;67.00;;;;;;5144871;27;20054;-69
2022/11/26 01:35:19;;;;;;;21.48;10.05;;;12.90;66.90;;;;;;5144802;27;20025;-68
2022/11/26 01:37:45;;;;;;;21.35;9.70;;;12.90;66.80;;;;;;5144776;27;20019;-68
2022/11/26 01:40:33;;;;;;;19.15;8.98;;;12.90;66.70;;;;;;5144752;27;20242;-69
2022/11/26 01:43:03;;;;;;;20.98;9.57;;;13.00;66.60;;;;;;5144801;27;20539;-69
2022/11/26 01:45:29;;;;;;;21.05;9.75;;;13.00;66.60;;;;;;5144618;27;20019;-69
2022/11/26 01:47:54;;;;;;;25.45;9.73;;;13.00;66.50;;;;;;5144504;27;20376;-68
2022/11/26 01:50:33;;;;;;;22.40;9.95;;;13.00;66.50;;;;;;5144533;27;20219;-69
2022/11/26 01:53:04;;;;;;;21.08;9.57;;;13.00;66.30;;;;;;5144433;27;20019;-69
2022/11/26 01:55:45;;;;;;;23.52;10.55;;;13.00;66.30;;;;;;5144225;27;20051;-69
2022/11/26 01:58:15;;;;;;;25.83;10.38;;;13.00;66.30;;;;;;5144376;27;20027;-68
2022/11/26 02:00:41;;;;;;;22.65;10.38;;;13.00;66.30;;;;;;5144376;27;20030;-69
2022/11/26 02:03:08;;;;;;;21.42;9.45;;;13.00;66.20;;;;;;5144327;27;20055;-68
2022/11/26 02:05:40;;;;;;;23.35;10.55;;;13.00;66.20;;;;;;5144217;27;20019;-68
2022/11/26 02:08:07;;;;;;;21.38;10.35;;;13.00;66.00;;;;;;5144210;27;20011;-69
2022/11/26 02:10:33;;;;;;;19.42;10.07;;;13.00;66.00;;;;;;5125652;27;20092;-68
2022/11/26 02:12:59;;;;;;;20.75;10.18;;;13.10;66.10;;;;;;5144012;27;20015;-69
2022/11/26 02:15:32;;;;;;;17.38;9.25;;;13.10;66.30;;;;;;5143925;27;20047;-68
2022/11/26 02:18:05;;;;;;;21.10;8.70;;;13.00;66.60;;;;;;5143980;27;20027;-69
2022/11/26 02:20:41;;;;;;;19.27;9.18;;;13.00;66.60;;;;;;5143970;27;20065;-69
2022/11/26 02:23:28;;;;;;;20.17;9.30;;;13.00;66.60;;;;;;5144000;27;20042;-69
2022/11/26 02:26:19;;;;;;;19.63;9.20;;;13.00;66.60;;;;;;5143726;27;20057;-69
2022/11/26 02:29:17;;;;;;;18.98;8.77;;;13.00;66.70;;;;;;5143834;27;20214;-69
2022/11/26 02:31:58;;;;;;;20.05;9.90;;;13.00;66.90;;;;;;5143739;27;20090;-68
2022/11/26 02:34:34;;;;;;;19.83;9.90;;;12.90;67.00;;;;;;5143547;27;20333;-68
2022/11/26 02:37:09;;;;;;;22.77;9.68;;;12.90;67.20;;;;;;5143598;27;20051;-68
2022/11/26 02:39:35;;;;;;;18.55;8.85;;;12.90;67.70;;;;;;5142743;27;20015;-68
2022/11/26 02:42:03;;;;;;;17.80;9.00;;;12.90;67.00;;;;;;5143424;27;20023;-69
2022/11/26 02:44:43;;;;;;;22.27;10.30;;;12.90;67.00;;;;;;5143498;27;20034;-68
2022/11/26 02:47:13;;;;;;;17.80;9.30;;;12.90;66.70;;;;;;5143486;27;20023;-68
2022/11/26 02:49:41;;;;;;;17.92;8.82;;;13.00;66.70;;;;;;5143364;27;20090;-69
2022/11/26 02:52:10;;;;;;;21.38;9.43;;;13.00;66.50;;;;;;5143267;27;20019;-68
2022/11/26 02:54:37;;;;;;;19.83;9.10;;;13.00;66.50;;;;;;5143023;27;20042;-69
2022/11/26 02:57:06;;;;;;;23.35;11.07;;;13.00;66.50;;;;;;5143205;27;20034;-68
2022/11/26 02:59:32;;;;;;;18.10;9.00;;;13.00;66.50;;;;;;5143119;27;20064;-69
2022/11/26 03:02:26;;;;;;;21.45;9.63;;;13.00;66.40;;;;;;5143125;27;20034;-68
2022/11/26 03:04:58;;;;;;;23.05;9.70;;;13.00;66.30;;;;;;5140160;27;20268;-68
2022/11/26 03:07:25;;;;;;;20.15;9.52;;;13.00;66.90;;;;;;5143132;27;20046;-69
2022/11/26 03:09:56;;;;;;;21.38;9.38;;;13.00;66.30;;;;;;5142952;27;20034;-69
2022/11/26 03:12:22;;;;;;;20.33;8.85;;;13.00;66.30;;;;;;5142832;27;20035;-68
2022/11/26 03:14:48;;;;;;;20.83;9.73;;;13.10;66.30;;;;;;5142807;27;20015;-69
2022/11/26 03:17:14;;;;;;;20.52;9.85;;;13.00;66.10;;;;;;5142884;27;20034;-69
2022/11/26 03:19:40;;;;;;;22.27;9.80;;;13.10;66.10;;;;;;5142771;27;20187;-69
2022/11/26 03:22:06;;;;;;;19.58;9.13;;;13.00;66.00;;;;;;5142742;27;20022;-69
2022/11/26 03:24:32;;;;;;;17.98;7.88;;;13.10;66.10;;;;;;5142732;27;20086;-68
2022/11/26 03:26:58;;;;;;;16.80;8.93;;;13.00;66.30;;;;;;5142676;27;20034;-69
2022/11/26 03:29:24;;;;;;;18.35;8.65;;;13.00;66.40;;;;;;5142275;27;20249;-68
2022/11/26 03:31:50;;;;;;;17.38;8.43;;;13.00;66.30;;;;;;5142639;27;20027;-69
2022/11/26 03:34:16;;;;;;;19.45;9.00;;;13.00;66.30;;;;;;5142497;27;20019;-69
2022/11/26 03:36:41;;;;;;;19.13;8.85;;;13.00;66.40;;;;;;5142556;27;20035;-68
2022/11/26 03:39:07;;;;;;;17.98;8.75;;;13.00;66.60;;;;;;5142533;27;20023;-69
2022/11/26 03:41:33;;;;;;;18.92;10.15;;;13.00;66.60;;;;;;5142457;27;20031;-68
2022/11/26 03:43:59;;;;;;;19.13;9.55;;;13.00;66.70;;;;;;5142425;27;20023;-69
2022/11/26 03:46:24;;;;;;;19.20;9.30;;;12.90;66.90;;;;;;5142422;27;20027;-68
2022/11/26 03:48:50;;;;;;;14.95;7.80;;;12.90;66.90;;;;;;5142478;27;20192;-69
2022/11/26 03:51:16;;;;;;;19.48;9.35;;;13.00;66.80;;;;;;5142247;27;20068;-68
2022/11/26 03:53:42;;;;;;;19.05;9.15;;;13.00;66.70;;;;;;5142363;27;20042;-68
2022/11/26 03:56:08;;;;;;;20.65;8.82;;;13.00;66.60;;;;;;5142174;28;20047;-69
2022/11/26 03:58:34;;;;;;;15.60;7.72;;;13.00;66.50;;;;;;5142551;28;20248;-68
2022/11/26 04:01:05;;;;;;;17.95;7.90;;;13.00;66.40;;;;;;5123838;28;20023;-68
2022/11/26 04:03:31;;;;;;;20.65;9.68;;;13.00;66.30;;;;;;5142266;28;20023;-68
2022/11/26 04:05:57;;;;;;;19.58;9.35;;;13.00;66.30;;;;;;5142217;28;20023;-69
2022/11/26 04:08:23;;;;;;;17.38;8.18;;;13.00;66.40;;;;;;5142106;28;20062;-69
2022/11/26 04:10:48;;;;;;;16.33;8.90;;;13.00;66.40;;;;;;5142192;28;20086;-69
2022/11/26 04:13:14;;;;;;;16.88;8.55;;;13.00;66.30;;;;;;5142200;28;20015;-68
2022/11/26 04:15:40;;;;;;;18.10;8.13;;;13.00;66.30;;;;;;5142148;28;20214;-68
2022/11/26 04:18:06;;;;;;;18.92;8.77;;;13.10;66.30;;;;;;5142119;28;20381;-68
2022/11/26 04:20:32;;;;;;;16.13;8.20;;;13.10;66.80;;;;;;5142136;28;20034;-68
2022/11/26 04:22:58;;;;;;;21.20;9.60;;;13.10;66.20;;;;;;5142039;28;20131;-68
2022/11/26 04:25:25;;;;;;;16.75;8.40;;;13.00;66.10;;;;;;5142047;28;20095;-68
2022/11/26 04:27:50;;;;;;;15.27;8.50;;;13.00;66.30;;;;;;5142021;28;20035;-68
2022/11/26 04:30:16;;;;;;;15.45;8.82;;;13.00;66.30;;;;;;5142030;28;20086;-69
2022/11/26 04:32:42;;;;;;;17.60;9.02;;;13.00;66.40;;;;;;5142067;28;20318;-68
2022/11/26 04:35:08;;;;;;;22.77;8.32;;;13.00;66.40;;;;;;5141907;28;20046;-69
2022/11/26 04:37:35;;;;;;;15.50;7.88;;;13.00;66.70;;;;;;5141995;28;20030;-69
2022/11/26 04:40:01;;;;;;;15.30;7.95;;;13.00;66.80;;;;;;5141923;28;20087;-68
2022/11/26 04:42:27;;;;;;;19.23;9.02;;;13.00;66.70;;;;;;5141884;28;20022;-68
2022/11/26 04:44:52;;;;;;;17.08;8.00;;;13.00;66.70;;;;;;5141849;28;20011;-68
2022/11/26 04:47:18;;;;;;;16.85;8.88;;;13.00;66.70;;;;;;5141808;28;20054;-68
2022/11/26 04:49:44;;;;;;;14.35;8.48;;;13.00;66.90;;;;;;5141795;28;20039;-69
2022/11/26 04:52:10;;;;;;;15.60;8.07;;;13.00;66.90;;;;;;5141802;28;20322;-68
2022/11/26 04:54:35;;;;;;;16.45;7.95;;;12.90;66.90;;;;;;5141540;28;20287;-69
2022/11/26 04:57:01;;;;;;;17.48;8.05;;;12.90;67.10;;;;;;5141780;28;20086;-68
2022/11/26 04:59:27;;;;;;;18.05;8.40;;;12.90;67.30;;;;;;5141752;28;20214;-68
2022/11/26 05:01:53;;;;;;;15.27;7.75;;;12.90;67.20;;;;;;5142906;27;20041;-68
2022/11/26 05:04:19;;;;;;;16.13;7.43;;;12.90;66.90;;;;;;5145434;27;20038;-68
2022/11/26 05:06:45;;;;;;;16.45;8.13;;;13.00;66.90;;;;;;5145316;27;20068;-68
2022/11/26 05:09:11;;;;;;;13.32;7.38;;;13.00;66.80;;;;;;5145323;27;20543;-69
2022/11/26 05:11:36;;;;;;;18.58;7.95;;;13.00;66.80;;;;;;5145280;27;20049;-68
2022/11/26 05:14:03;;;;;;;15.07;7.45;;;13.00;66.60;;;;;;5145164;27;20025;-69
2022/11/26 05:16:29;;;;;;;15.23;7.35;;;13.00;66.60;;;;;;5145180;27;20060;-69
2022/11/26 05:18:55;;;;;;;17.38;7.13;;;13.00;66.50;;;;;;5145258;27;20346;-68
2022/11/26 05:21:20;;;;;;;17.75;7.50;;;13.00;66.30;;;;;;5145178;27;20019;-68
2022/11/26 05:23:46;;;;;;;15.88;7.38;;;13.00;66.30;;;;;;5145057;27;20383;-68
2022/11/26 05:26:12;;;;;;;16.55;8.13;;;13.00;66.30;;;;;;5145019;27;20349;-68
2022/11/26 05:28:38;;;;;;;16.30;7.55;;;13.00;66.30;;;;;;5144967;27;20037;-70
2022/11/26 05:31:04;;;;;;;15.02;7.80;;;13.00;66.30;;;;;;5144916;27;20027;-70
2022/11/26 05:33:30;;;;;;;13.82;7.80;;;13.00;66.30;;;;;;5144880;27;20038;-68
2022/11/26 05:35:56;;;;;;;15.60;7.35;;;13.00;66.30;;;;;;5144737;27;20019;-69
2022/11/26 05:38:22;;;;;;;13.55;7.28;;;13.00;67.00;;;;;;5144739;27;20026;-68
2022/11/26 05:40:48;;;;;;;16.92;8.00;;;13.00;66.40;;;;;;5144812;27;20056;-68
2022/11/26 05:43:14;;;;;;;16.15;7.00;;;13.00;66.30;;;;;;5144700;27;20023;-69
2022/11/26 05:45:40;;;;;;;14.90;7.13;;;13.10;66.30;;;;;;5144634;27;20054;-68
2022/11/26 05:48:06;;;;;;;17.65;8.45;;;13.00;66.40;;;;;;5144583;27;20023;-69
2022/11/26 05:50:32;;;;;;;15.05;7.88;;;12.90;66.80;;;;;;5144514;27;20016;-69
2022/11/26 05:52:58;;;;;;;15.43;8.07;;;13.00;66.90;;;;;;5144501;27;20225;-68
2022/11/26 05:55:24;;;;;;;14.35;7.13;;;13.00;66.90;;;;;;5144170;27;20050;-68
2022/11/26 05:57:50;;;;;;;14.82;7.15;;;13.00;66.80;;;;;;5144410;27;20062;-69
2022/11/26 06:00:16;;;;;;;17.70;8.50;;;12.90;67.00;;;;;;5144385;27;20027;-68
2022/11/26 06:02:42;;;;;;;15.35;7.38;;;12.90;67.10;;;;;;5144390;27;20078;-69
2022/11/26 06:05:08;;;;;;;13.32;7.18;;;12.90;67.30;;;;;;5144227;27;20031;-68
2022/11/26 06:07:34;;;;;;;15.98;7.68;;;12.90;67.30;;;;;;5144255;27;20082;-68
2022/11/26 06:10:00;;;;;;;14.35;7.90;;;12.90;67.30;;;;;;5144119;27;20260;-69
2022/11/26 06:12:26;;;;;;;15.85;8.00;;;12.90;67.10;;;;;;5144139;27;20086;-68
2022/11/26 06:14:51;;;;;;;16.42;7.97;;;13.00;67.00;;;;;;5143971;27;20035;-68
2022/11/26 06:17:17;;;;;;;13.77;6.93;;;13.00;66.80;;;;;;5143986;27;20042;-68
2022/11/26 06:19:43;;;;;;;14.50;6.63;;;13.00;66.80;;;;;;5143972;27;20023;-68
2022/11/26 06:22:09;;;;;;;16.13;7.88;;;13.00;66.60;;;;;;5143937;27;20011;-68
2022/11/26 06:24:35;;;;;;;15.60;7.38;;;13.00;66.50;;;;;;5143913;27;20023;-68
2022/11/26 06:27:01;;;;;;;12.23;6.60;;;13.00;66.50;;;;;;5143851;27;20379;-68
2022/11/26 06:29:27;;;;;;;14.90;7.88;;;13.10;66.40;;;;;;5143790;27;20027;-68
2022/11/26 06:31:52;;;;;;;15.48;8.50;;;13.10;66.50;;;;;;5143725;27;20045;-68
2022/11/26 06:34:18;;;;;;;14.10;7.72;;;13.00;66.40;;;;;;5143598;27;20435;-68
2022/11/26 06:36:44;;;;;;;14.02;6.80;;;13.10;66.40;;;;;;5143632;27;20239;-69
2022/11/26 06:39:10;;;;;;;15.20;7.13;;;13.00;66.30;;;;;;5143557;27;20042;-68
2022/11/26 06:41:36;;;;;;;12.80;7.03;;;13.00;66.30;;;;;;5143531;27;20023;-68
2022/11/26 06:44:02;;;;;;;13.93;6.68;;;13.00;66.30;;;;;;5143556;27;20086;-69
2022/11/26 06:46:29;;;;;;;15.15;7.63;;;13.00;66.30;;;;;;5125006;27;20330;-68
2022/11/26 06:48:54;;;;;;;13.65;6.88;;;13.00;66.30;;;;;;5143411;27;20416;-68
2022/11/26 06:51:20;;;;;;;13.85;7.10;;;13.00;66.20;;;;;;5143330;27;20060;-68
2022/11/26 06:53:48;;;;;;;17.08;8.02;;;13.00;66.30;;;;;;5143060;27;20037;-68
2022/11/26 06:56:14;;;;;;;14.82;7.18;;;13.10;66.30;;;;;;5143203;27;20027;-69
2022/11/26 06:58:40;;;;;;;13.63;7.78;;;13.00;66.50;;;;;;5143235;27;20015;-68
2022/11/26 07:01:15;;;;;;;13.95;7.35;;;13.00;66.80;;;;;;5143205;27;20059;-68
2022/11/26 07:03:41;;;;;;;14.43;7.18;;;13.00;67.00;;;;;;5143175;27;20075;-68
2022/11/26 07:06:19;;;;;;;15.20;7.97;;;13.00;66.90;;;;;;5143110;27;20257;-68
2022/11/26 07:08:45;;;;;;;17.25;8.45;;;13.00;66.90;;;;;;5142967;27;20042;-68
2022/11/26 07:11:11;;;;;;;14.45;6.88;;;13.00;67.00;;;;;;5142959;27;20370;-69
2022/11/26 07:13:37;;;;;;;12.40;7.18;;;12.90;67.00;;;;;;5142870;27;20037;-68
2022/11/26 07:16:04;;;;;;;15.98;7.38;;;12.90;67.30;;;;;;5142856;27;20037;-68
2022/11/26 07:18:30;;;;;;;15.07;7.38;;;12.90;67.30;;;;;;5142821;27;20030;-69
2022/11/26 07:20:56;;;;;;;16.77;7.63;;;12.90;67.20;;;;;;5142826;27;20187;-69
2022/11/26 07:23:22;;;;;;;14.40;7.10;;;12.90;67.10;;;;;;5142764;27;20226;-69
2022/11/26 07:25:48;;;;;;;14.65;7.55;;;13.00;67.00;;;;;;5142349;27;20200;-68
2022/11/26 07:28:14;;;;;;;12.13;6.82;;;13.00;66.90;;;;;;5142771;27;20030;-69
2022/11/26 07:30:40;;;;;;;14.30;7.10;;;13.00;66.90;;;;;;5142730;27;20342;-68
2022/11/26 07:33:05;;;;;;;14.18;7.80;;;13.00;66.80;;;;;;5142666;27;20078;-68
2022/11/26 07:35:31;;;;;;;13.43;7.25;;;13.00;66.70;;;;;;5142530;27;20026;-69
2022/11/26 07:37:58;;;;;;;16.58;8.27;;;13.00;66.60;;;;;;5142472;27;20047;-68
2022/11/26 07:40:24;;;;;;;14.25;7.28;;;13.00;66.50;;;;;;5142509;27;20011;-68
2022/11/26 07:42:50;;;;;;;10.00;5.88;;;13.00;66.50;;;;;;5142452;27;20027;-69
2022/11/26 07:45:15;;;;;;;14.88;7.47;;;13.10;66.50;;;;;;5142405;27;20030;-68
2022/11/26 07:47:41;;;;;;;15.02;7.50;;;13.10;66.40;;;;;;5142451;27;20046;-68
2022/11/26 07:50:07;;;;;;;14.48;7.50;;;13.00;66.30;;;;;;5142491;27;20091;-69
2022/11/26 07:52:33;;;;;;;16.50;7.13;;;13.10;66.40;;;;;;5142392;27;20033;-69
2022/11/26 07:54:59;;;;;;;12.85;7.20;;;13.00;66.40;;;;;;5142029;27;20101;-68
2022/11/26 07:57:25;;;;;;;13.65;6.57;;;13.10;66.50;;;;;;5142274;28;20083;-69
2022/11/26 07:59:51;;;;;;;15.38;7.90;;;13.10;66.40;;;;;;5123842;28;20022;-68
2022/11/26 08:02:17;;;;;;;16.08;7.55;;;13.10;66.30;;;;;;5142278;28;20019;-68
2022/11/26 08:04:43;;;;;;;15.02;7.13;;;13.00;66.30;;;;;;5142180;28;20030;-68
2022/11/26 08:07:08;;;;;;;12.90;7.00;;;13.00;66.40;;;;;;5142262;28;20027;-68
2022/11/26 08:09:34;;;;;;;13.00;6.82;;;13.00;66.40;;;;;;5142227;28;20019;-68
2022/11/26 08:12:00;;;;;;;14.25;6.78;;;13.00;66.40;;;;;;5142208;28;20076;-69
2022/11/26 08:14:26;;;;;;;15.55;7.93;;;13.00;66.40;;;;;;5142189;28;20027;-69
2022/11/26 08:16:52;;;;;;;14.40;7.28;;;13.00;66.40;;;;;;5142225;28;20325;-68
2022/11/26 08:19:18;;;;;;;12.82;7.15;;;13.00;66.60;;;;;;5142149;28;20210;-68
2022/11/26 08:21:43;;;;;;;12.52;6.35;;;13.00;67.00;;;;;;5142165;28;20330;-68
2022/11/26 08:24:15;;;;;;;11.60;6.53;;;12.90;67.10;;;;;;5142068;28;20031;-68
2022/11/26 08:26:41;;;;;;;11.68;6.75;;;13.00;67.00;;;;;;5142056;28;20360;-69
2022/11/26 08:29:07;;;;;;;14.02;7.13;;;13.00;67.00;;;;;;5142003;28;20240;-68
2022/11/26 08:31:33;;;;;;;14.50;7.22;;;13.00;67.20;;;;;;5142066;28;20019;-68
2022/11/26 08:34:00;;;;;;;11.05;6.13;;;12.90;67.30;;;;;;5141867;28;20381;-68
2022/11/26 08:36:30;;;;;;;13.63;7.05;;;12.90;67.40;;;;;;5142540;27;20027;-68
2022/11/26 08:38:57;;;;;;;13.32;6.88;;;12.90;67.40;;;;;;5145947;27;20087;-68
2022/11/26 08:41:23;;;;;;;13.98;7.10;;;12.90;67.60;;;;;;5145915;27;20022;-68
2022/11/26 08:43:49;;;;;;;11.77;6.43;;;12.90;67.50;;;;;;5145857;27;20319;-68
2022/11/26 08:46:15;;;;;;;11.52;6.53;;;12.90;67.30;;;;;;5145757;27;20019;-69
2022/11/26 08:48:41;;;;;;;12.35;6.72;;;12.90;67.10;;;;;;5145803;27;20015;-68
2022/11/26 08:51:09;;;;;;;12.95;6.70;;;12.90;67.00;;;;;;5145622;27;20393;-68
2022/11/26 08:53:36;;;;;;;13.52;6.80;;;13.00;67.00;;;;;;5145700;27;20031;-69
2022/11/26 08:56:07;;;;;;;14.60;7.80;;;13.00;67.00;;;;;;5145452;27;20139;-69
2022/11/26 08:58:39;;;;;;;13.73;6.35;;;12.90;66.90;;;;;;5145653;27;20023;-68
2022/11/26 09:01:09;;;;;;;13.63;6.80;;;13.00;67.00;;;;;;5145594;27;20025;-68
2022/11/26 09:03:36;;;;;;;11.38;6.35;;;13.00;66.90;;;;;;5145499;27;20023;-68
2022/11/26 09:06:03;;;;;;;13.25;6.40;;;13.00;66.90;;;;;;5145443;27;20027;-68
2022/11/26 09:08:30;;;;;;;13.18;6.65;;;13.00;66.90;;;;;;5145379;27;20011;-69
2022/11/26 09:10:57;;;;;;;12.18;7.50;;;13.00;66.90;;;;;;5145344;27;20019;-68
2022/11/26 09:13:22;;;;;;;12.68;7.40;;;13.00;66.90;;;;;;5145341;27;20050;-69
2022/11/26 09:15:49;;;;;;;11.23;6.55;;;13.00;67.00;;;;;;5145242;27;20314;-69
2022/11/26 09:18:16;;;;;;;12.57;5.65;;;13.00;67.10;;;;;;5145207;27;20361;-69
2022/11/26 09:20:42;;;;;;;10.77;5.95;;;12.90;67.30;;;;;;5145164;27;20106;-68
2022/11/26 09:23:08;;;;;;;15.57;6.40;;;12.90;67.40;;;;;;5126647;27;20314;-69
2022/11/26 09:25:36;;;;;;;13.63;7.32;;;12.90;67.50;;;;;;5145040;27;20042;-68
2022/11/26 09:28:03;;;;;;;12.15;6.68;;;12.90;67.50;;;;;;5145073;27;20428;-69
2022/11/26 09:30:29;;;;;;;11.77;6.38;;;12.90;67.60;;;;;;5144926;27;20337;-68
2022/11/26 09:32:55;;;;;;;14.52;6.82;;;12.90;67.70;;;;;;5126448;27;20027;-68
2022/11/26 09:35:21;;;;;;;12.02;6.03;;;12.90;67.70;;;;;;5144782;27;20034;-68
2022/11/26 09:37:46;;;;;;;12.75;7.00;;;13.00;67.70;;;;;;5144859;27;20022;-68
2022/11/26 09:40:17;;;;;;;12.88;6.63;;;13.00;67.50;;;;;;5144850;27;20451;-69
2022/11/26 09:43:11;;;;;;;14.32;6.78;;;13.00;67.50;;;;;;5126329;27;20119;-69
2022/11/26 09:45:51;;;;;;;11.05;6.03;;;13.00;67.60;;;;;;5144754;27;20041;-69
2022/11/26 09:48:23;;;;;;;12.35;5.97;;;13.00;67.70;;;;;;5144371;27;20334;-69
2022/11/26 09:51:02;;;;;;;13.27;6.30;;;13.00;67.80;;;;;;5144642;27;20069;-69
2022/11/26 09:53:32;;;;;;;10.80;6.43;;;13.00;68.00;;;;;;5144544;27;20051;-69
2022/11/26 09:56:00;;;;;;;13.60;7.07;;;13.00;68.00;;;;;;5144293;27;20034;-68
2022/11/26 09:58:51;;;;;;;12.27;6.60;;;13.00;68.00;;;;;;5144449;27;20035;-69
2022/11/26 10:01:21;;;;;;;14.10;7.35;;;13.00;67.90;;;;;;5144399;27;20068;-68
2022/11/26 10:03:48;;;;;;;12.82;5.85;;;13.00;68.00;;;;;;5144299;27;20019;-68
2022/11/26 10:06:47;;;;;;;11.63;6.28;;;13.00;68.00;;;;;;5144301;27;20027;-68
2022/11/26 10:09:52;;;;;;;12.10;6.50;;;13.10;68.00;;;;;;5144294;27;20016;-69
2022/11/26 10:12:27;;;;;;;13.20;6.07;;;13.00;68.10;;;;;;5144155;27;20023;-69
2022/11/26 10:14:59;;;;;;;13.10;6.88;;;13.00;68.10;;;;;;5143986;27;20033;-69
2022/11/26 10:17:52;;;;;;;11.20;6.32;;;13.10;68.20;;;;;;5144040;27;20022;-69
2022/11/26 10:20:27;;;;;;;12.55;6.32;;;13.10;68.20;;;;;;5144055;27;20011;-68
2022/11/26 10:23:04;;;;;;;11.75;6.07;;;13.10;68.20;;;;;;5144089;27;20031;-68
2022/11/26 10:25:37;;;;;;;13.05;6.50;;;13.10;68.30;;;;;;5144031;27;20350;-68
2022/11/26 10:28:15;;;;;;;10.25;6.32;;;13.10;68.30;;;;;;5143890;27;20080;-68
2022/11/26 10:30:41;;;;;;;11.07;6.13;;;13.10;68.40;;;;;;5143898;27;20326;-69
2022/11/26 10:33:14;;;;;;;10.18;5.85;;;13.10;68.50;;;;;;5125344;27;20035;-69
2022/11/26 10:35:41;;;;;;;12.50;6.70;;;13.10;68.50;;;;;;5143699;27;20086;-69
2022/11/26 10:38:09;;;;;;;9.27;5.80;;;13.10;68.50;;;;;;5143692;27;20019;-69
2022/11/26 10:40:35;;;;;;;13.52;7.18;;;13.20;68.40;;;;;;5143606;27;20049;-69
2022/11/26 10:43:07;;;;;;;11.35;6.40;;;13.20;68.50;;;;;;5143551;27;20057;-69
2022/11/26 10:45:53;;;;;;;10.80;6.10;;;13.20;68.50;;;;;;5143572;27;20023;-69
2022/11/26 10:48:25;;;;;;;10.13;5.82;;;13.20;68.50;;;;;;5143380;27;20024;-68
2022/11/26 10:51:18;;;;;;;10.65;5.45;;;13.20;68.60;;;;;;5143358;27;20023;-69
2022/11/26 10:53:58;;;;;;;12.48;6.38;;;13.20;68.60;;;;;;5143250;27;20027;-69
2022/11/26 10:56:30;;;;;;;10.65;5.97;;;13.20;68.50;;;;;;5143252;27;20039;-69
2022/11/26 10:59:02;;;;;;;11.32;5.65;;;13.20;68.60;;;;;;5142692;27;20015;-68
2022/11/26 11:01:38;;;;;;;11.77;6.55;;;13.30;68.60;;;;;;5143153;27;20023;-68
2022/11/26 11:04:23;;;;;;;11.77;6.10;;;13.30;68.60;;;;;;5143147;27;20027;-69
2022/11/26 11:06:49;;;;;;;12.13;7.07;;;13.30;68.60;;;;;;5143240;27;20023;-68
2022/11/26 11:09:24;;;;;;;9.73;6.00;;;13.30;68.70;;;;;;5143025;27;20018;-69
2022/11/26 11:12:17;;;;;;;12.30;6.28;;;13.30;68.70;;;;;;5143250;27;20196;-69
2022/11/26 11:14:44;;;;;;;8.90;5.53;;;13.30;68.70;;;;;;5124481;27;20047;-69
2022/11/26 11:17:33;;;;;;;11.55;6.20;;;13.30;68.70;;;;;;5124406;27;20015;-69
2022/11/26 11:20:25;;;;;;;10.40;6.32;;;13.30;68.60;;;;;;5142916;27;20183;-69
2022/11/26 11:23:04;;;;;;;11.00;6.18;;;13.30;68.70;;;;;;5131287;27;20046;-69
2022/11/26 11:25:35;;;;;;;9.93;5.80;;;13.30;68.70;;;;;;5142842;27;20530;-68
2022/11/26 11:28:14;;;;;;;11.13;6.20;;;13.40;68.80;;;;;;5142853;27;20034;-69
2022/11/26 11:30:41;;;;;;;10.57;5.95;;;13.40;68.80;;;;;;5142731;27;20050;-69
2022/11/26 11:33:21;;;;;;;10.18;6.07;;;13.40;68.80;;;;;;5142822;27;20088;-70
2022/11/26 11:36:03;;;;;;;12.30;5.88;;;13.40;68.90;;;;;;5142494;27;20023;-69
2022/11/26 11:38:32;;;;;;;12.40;5.55;;;13.40;68.90;;;;;;5142574;27;20307;-69
2022/11/26 11:41:03;;;;;;;10.45;6.07;;;13.40;68.90;;;;;;5142515;27;20029;-69
2022/11/26 11:43:35;;;;;;;10.93;6.22;;;13.40;68.90;;;;;;5142462;27;20019;-69
2022/11/26 11:46:30;;;;;;;10.32;5.57;;;13.40;68.80;;;;;;5142726;27;20241;-68
2022/11/26 11:49:00;;;;;;;10.73;5.88;;;13.40;68.90;;;;;;5142524;27;20027;-69
2022/11/26 11:51:40;;;;;;;9.90;6.15;;;13.40;69.00;;;;;;5142493;27;20033;-69
2022/11/26 11:54:18;;;;;;;99.57;15.82;;;13.40;69.00;;;;;;5142154;27;20234;-65
2022/11/26 11:57:03;;;;;;;15.03;5.97;;;13.40;68.20;;;;;;5124373;28;20054;-71
2022/11/26 12:00:13;;;;;;;22.85;8.30;;;13.40;69.30;;;;;;5142688;28;20087;-70
2022/11/26 12:03:02;;;;;;;15.38;6.72;;;13.50;68.80;;;;;;5130922;28;20037;-72
2022/11/26 12:06:10;;;;;;;22.90;7.57;;;13.50;69.00;;;;;;5142061;28;20076;-69
2022/11/26 12:08:36;;;;;;;35.42;8.43;;;13.60;69.20;;;;;;5142605;28;20023;-70
2022/11/26 12:11:28;;;;;;;32.47;7.80;;;13.70;69.40;;;;;;5144274;27;20074;-72
2022/11/26 12:14:00;;;;;;;20.60;8.07;;;13.70;69.60;;;;;;5146842;27;20374;-70
2022/11/26 12:16:32;;;;;;;27.83;7.93;;;13.70;70.00;;;;;;5146504;27;20023;-70
2022/11/26 12:19:04;;;;;;;43.22;9.75;;;13.80;70.80;;;;;;5146430;27;20049;-72
2022/11/26 12:21:39;;;;;;;38.17;8.82;;;13.80;70.20;;;;;;5146305;27;20045;-74
2022/11/26 12:24:19;;;;;;;30.40;7.95;;;13.90;70.30;;;;;;5140204;27;20039;-71
2022/11/26 12:27:04;;;;;;;36.20;9.13;;;13.90;70.50;;;;;;5142200;27;20027;-72
2022/11/26 12:29:54;;;;;;;45.20;10.52;;;14.00;70.80;;;;;;5147397;27;20306;-75
2022/11/26 12:32:30;;;;;;;44.13;10.30;;;14.00;70.50;;;;;;5127914;27;20031;-69
2022/11/26 12:35:03;;;;;;;36.63;8.55;;;14.00;70.80;;;;;;5142092;27;20016;-77
2022/11/26 12:37:41;;;;;;;43.22;10.32;;;14.10;71.00;;;;;;5125656;28;20071;-77
2022/11/26 12:40:31;;;;;;;78.63;13.65;;;14.10;70.30;;;;;;5126014;28;20058;-77
2022/11/26 12:43:12;;;;;;;86.05;15.43;;;14.20;69.20;;;;;;5125975;28;20031;-75
2022/11/26 12:45:49;;;;;;;105.05;17.90;;;14.20;68.90;;;;;;5126009;28;20343;-76
2022/11/26 12:48:35;;;;;;;142.65;18.90;;;14.30;69.30;;;;;;5107261;28;20402;-77
2022/11/26 12:51:27;;;;;;;119.90;20.50;;;14.20;69.30;;;;;;5125704;28;20299;-75